createdAt,value
2022-10-21T00:01:55.877Z,7.13
2022-10-21T00:03:58.373Z,5.27
2022-10-21T00:06:00.388Z,7.83
2022-10-21T00:08:02.700Z,6.63
2022-10-21T00:10:05.961Z,6.77
2022-10-21T00:12:08.276Z,5.37
2022-10-21T00:14:35.436Z,6.73
2022-10-21T00:16:37.962Z,8.50
2022-10-21T00:18:41.394Z,8.07
2022-10-21T00:20:43.489Z,6.67
2022-10-21T00:22:45.568Z,5.53
2022-10-21T00:24:48.109Z,6.93
2022-10-21T00:26:50.982Z,7.17
2022-10-21T00:28:59.309Z,6.83
2022-10-21T00:31:01.838Z,8.33
2022-10-21T00:33:04.051Z,7.03
2022-10-21T00:35:06.561Z,10.80
2022-10-21T00:37:12.029Z,7.03
2022-10-21T00:39:14.019Z,8.60
2022-10-21T00:41:19.987Z,15.63
2022-10-21T00:43:22.477Z,16.80
2022-10-21T00:45:29.651Z,17.13
2022-10-21T00:47:38.244Z,10.40
2022-10-21T00:49:46.425Z,6.10
2022-10-21T00:51:52.930Z,6.13
2022-10-21T00:53:55.115Z,6.70
2022-10-21T00:56:04.014Z,7.37
2022-10-21T00:58:08.764Z,10.47
2022-10-21T01:00:14.165Z,9.63
2022-10-21T01:02:16.762Z,9.57
2022-10-21T01:04:22.652Z,12.50
2022-10-21T01:06:26.438Z,16.73
2022-10-21T01:08:29.556Z,16.63
2022-10-21T01:10:31.971Z,15.40
2022-10-21T01:12:50.013Z,18.57
2022-10-21T01:14:58.406Z,17.17
2022-10-21T01:17:15.500Z,14.13
2022-10-21T01:19:36.308Z,9.97
2022-10-21T01:21:56.188Z,11.50
2022-10-21T01:26:05.930Z,6.67
2022-10-21T01:28:15.664Z,7.73
2022-10-21T01:30:19.474Z,6.87
2022-10-21T01:32:42.121Z,7.03
2022-10-21T01:34:56.332Z,5.47
2022-10-21T01:37:04.605Z,6.90
2022-10-21T01:39:31.017Z,5.23
2022-10-21T01:41:48.732Z,4.73
2022-10-21T01:44:14.398Z,6.30
2022-10-21T01:46:26.194Z,7.00
2022-10-21T01:48:34.009Z,6.23
2022-10-21T01:50:42.568Z,4.43
2022-10-21T01:52:49.977Z,5.33
2022-10-21T01:54:59.176Z,4.07
2022-10-21T02:00:50.900Z,5.30
2022-10-21T02:02:52.997Z,4.80
2022-10-21T02:04:56.371Z,3.50
2022-10-21T02:06:58.698Z,3.20
2022-10-21T02:09:00.965Z,4.67
2022-10-21T02:11:07.151Z,5.40
2022-10-21T02:13:10.999Z,3.97
2022-10-21T02:15:15.699Z,4.07
2022-10-21T02:17:20.241Z,4.50
2022-10-21T02:19:22.173Z,4.83
2022-10-21T02:21:28.370Z,4.30
2022-10-21T02:23:43.931Z,3.67
2022-10-21T02:25:50.749Z,4.23
2022-10-21T02:27:53.440Z,5.57
2022-10-21T02:34:06.349Z,6.13
2022-10-21T02:40:29.236Z,7.63
2022-10-21T02:42:40.167Z,6.03
2022-10-21T02:48:37.485Z,9.43
2022-10-21T02:50:39.719Z,6.20
2022-10-21T02:52:41.666Z,6.27
2022-10-21T02:54:43.454Z,4.93
2022-10-21T02:56:45.230Z,7.90
2022-10-21T02:58:47.090Z,6.63
2022-10-21T03:00:49.343Z,6.83
2022-10-21T03:02:51.178Z,4.93
2022-10-21T03:04:53.055Z,4.40
2022-10-21T03:06:55.137Z,6.13
2022-10-21T03:08:57.372Z,2.87
2022-10-21T03:10:59.566Z,3.83
2022-10-21T03:13:01.575Z,3.37
2022-10-21T03:15:04.061Z,5.70
2022-10-21T03:17:06.208Z,4.87
2022-10-21T03:23:08.146Z,3.47
2022-10-21T03:25:10.344Z,5.53
2022-10-21T03:27:12.252Z,4.17
2022-10-21T03:29:14.349Z,2.50
2022-10-21T03:31:16.365Z,3.50
2022-10-21T03:33:18.251Z,3.60
2022-10-21T03:35:20.080Z,4.43
2022-10-21T03:37:21.924Z,4.13
2022-10-21T03:39:23.854Z,4.70
2022-10-21T03:41:25.805Z,4.37
2022-10-21T03:43:27.625Z,2.67
2022-10-21T03:49:02.828Z,2.83
2022-10-21T03:51:08.754Z,2.67
2022-10-21T03:53:24.432Z,2.97
2022-10-21T03:55:32.545Z,3.67
2022-10-21T03:57:34.401Z,5.80
2022-10-21T03:59:36.273Z,3.90
2022-10-21T04:01:38.120Z,4.47
2022-10-21T04:03:41.296Z,4.70
2022-10-21T04:05:43.170Z,5.10
2022-10-21T04:07:49.290Z,5.70
2022-10-21T04:09:54.072Z,6.73
2022-10-21T04:11:56.118Z,5.83
2022-10-21T04:13:58.197Z,7.47
2022-10-21T04:16:02.896Z,12.70
2022-10-21T04:18:06.550Z,14.47
2022-10-21T04:20:09.759Z,14.20
2022-10-21T04:22:11.722Z,18.20
2022-10-21T04:24:13.843Z,15.93
2022-10-21T04:26:15.751Z,13.67
2022-10-21T04:28:17.606Z,13.97
2022-10-21T04:30:19.956Z,11.90
2022-10-21T04:32:21.667Z,10.60
2022-10-21T04:34:23.558Z,10.00
2022-10-21T04:36:25.525Z,8.20
2022-10-21T04:38:28.190Z,7.20
2022-10-21T04:40:30.442Z,7.40
2022-10-21T04:42:32.593Z,7.47
2022-10-21T04:44:34.481Z,10.97
2022-10-21T04:46:36.465Z,8.97
2022-10-21T04:48:38.364Z,7.07
2022-10-21T04:50:40.450Z,7.00
2022-10-21T04:52:42.351Z,14.37
2022-10-21T04:54:44.296Z,12.43
2022-10-21T04:56:46.216Z,11.93
2022-10-21T04:58:48.299Z,13.63
2022-10-21T05:04:45.048Z,17.67
2022-10-21T05:06:46.997Z,35.37
2022-10-21T05:08:48.908Z,18.97
2022-10-21T05:10:58.368Z,16.03
2022-10-21T05:13:00.645Z,18.40
2022-10-21T05:15:02.602Z,18.27
2022-10-21T05:17:04.607Z,14.63
2022-10-21T05:19:06.716Z,14.03
2022-10-21T05:21:08.876Z,10.43
2022-10-21T05:23:10.921Z,9.80
2022-10-21T05:25:15.253Z,10.70
2022-10-21T05:27:17.276Z,10.00
2022-10-21T05:29:44.469Z,9.80
2022-10-21T05:31:46.290Z,10.23
2022-10-21T05:33:48.225Z,9.77
2022-10-21T05:36:05.121Z,9.90
2022-10-21T05:38:07.060Z,17.10
2022-10-21T05:40:09.353Z,11.87
2022-10-21T05:42:11.350Z,13.33
2022-10-21T05:44:13.372Z,11.10
2022-10-21T05:46:15.327Z,11.53
2022-10-21T05:48:20.542Z,17.67
2022-10-21T05:50:25.085Z,10.57
2022-10-21T05:52:26.953Z,10.30
2022-10-21T05:54:28.816Z,11.27
2022-10-21T05:56:31.345Z,7.30
2022-10-21T05:58:35.021Z,6.87
2022-10-21T06:00:36.939Z,8.03
2022-10-21T06:02:39.165Z,9.60
2022-10-21T06:04:41.279Z,10.80
2022-10-21T06:06:43.305Z,6.90
2022-10-21T06:08:45.267Z,8.47
2022-10-21T06:10:47.400Z,13.10
2022-10-21T06:12:49.327Z,10.13
2022-10-21T06:14:51.333Z,14.27
2022-10-21T06:16:53.324Z,12.60
2022-10-21T06:18:57.910Z,11.47
2022-10-21T06:21:00.098Z,9.83
2022-10-21T06:23:02.096Z,12.17
2022-10-21T06:25:04.245Z,15.77
2022-10-21T06:27:06.987Z,8.07
2022-10-21T06:29:08.929Z,4.73
2022-10-21T06:31:16.588Z,10.00
2022-10-21T06:33:22.109Z,10.63
2022-10-21T06:35:26.687Z,9.23
2022-10-21T06:37:28.433Z,7.37
2022-10-21T06:39:30.667Z,6.93
2022-10-21T06:41:32.557Z,9.83
2022-10-21T06:43:35.310Z,7.40
2022-10-21T06:45:37.801Z,8.80
2022-10-21T06:47:40.195Z,7.57
2022-10-21T06:49:42.440Z,8.43
2022-10-21T06:51:44.371Z,6.40
2022-10-21T06:53:47.206Z,5.97
2022-10-21T06:55:49.064Z,7.13
2022-10-21T06:57:51.430Z,13.27
2022-10-21T06:59:53.379Z,21.87
2022-10-21T07:02:00.044Z,17.23
2022-10-21T07:04:04.448Z,34.50
2022-10-21T07:06:07.001Z,33.07
2022-10-21T07:08:11.907Z,28.87
2022-10-21T07:10:14.862Z,31.90
2022-10-21T07:12:17.166Z,30.13
2022-10-21T07:14:19.189Z,13.73
2022-10-21T07:16:27.747Z,9.07
2022-10-21T07:18:30.893Z,20.13
2022-10-21T07:20:34.479Z,18.38
2022-10-21T07:22:36.439Z,20.03
2022-10-21T07:24:38.343Z,14.27
2022-10-21T07:26:41.179Z,19.33
2022-10-21T07:28:47.086Z,20.67
2022-10-21T07:30:49.292Z,16.27
2022-10-21T07:32:51.692Z,29.33
2022-10-21T07:34:53.607Z,20.65
2022-10-21T07:36:55.490Z,17.00
2022-10-21T07:39:03.850Z,15.57
2022-10-21T07:41:06.177Z,14.02
2022-10-21T07:43:09.172Z,18.48
2022-10-21T07:45:12.879Z,10.75
2022-10-21T07:47:14.745Z,10.23
2022-10-21T07:49:18.950Z,11.63
2022-10-21T07:51:28.362Z,8.93
2022-10-21T07:53:32.324Z,11.05
2022-10-21T07:55:36.552Z,10.68
2022-10-21T07:57:38.793Z,12.85
2022-10-21T07:59:40.897Z,8.65
2022-10-21T08:03:55.967Z,8.57
2022-10-21T08:05:58.132Z,6.47
2022-10-21T08:08:00.372Z,9.27
2022-10-21T08:10:02.821Z,7.45
2022-10-21T08:12:04.723Z,8.68
2022-10-21T08:14:08.506Z,9.57
2022-10-21T08:16:10.430Z,11.60
2022-10-21T08:18:12.438Z,5.35
2022-10-21T08:20:14.358Z,5.82
2022-10-21T08:22:16.199Z,7.60
2022-10-21T08:24:18.119Z,7.38
2022-10-21T08:26:20.141Z,5.10
2022-10-21T08:28:24.536Z,3.33
2022-10-21T08:30:32.284Z,4.35
2022-10-21T08:32:34.282Z,5.90
2022-10-21T08:34:36.313Z,4.50
2022-10-21T08:36:39.125Z,5.57
2022-10-21T08:42:42.667Z,2.42
2022-10-21T08:44:46.602Z,3.95
2022-10-21T08:47:05.757Z,3.58
2022-10-21T08:49:16.529Z,6.72
2022-10-21T08:51:32.209Z,2.08
2022-10-21T08:53:45.366Z,3.63
2022-10-21T08:55:48.312Z,4.95
2022-10-21T08:57:53.941Z,2.30
2022-10-21T08:59:59.209Z,4.22
2022-10-21T09:02:25.071Z,3.67
2022-10-21T09:05:12.078Z,3.45
2022-10-21T09:07:28.413Z,3.03
2022-10-21T09:09:52.415Z,2.10
2022-10-21T09:12:14.374Z,4.05
2022-10-21T09:14:44.077Z,2.75
2022-10-21T09:16:54.533Z,2.30
2022-10-21T09:19:34.287Z,2.28
2022-10-21T09:21:45.527Z,4.32
2022-10-21T09:23:57.248Z,4.40
2022-10-21T09:26:06.368Z,8.88
2022-10-21T09:28:14.311Z,7.85
2022-10-21T09:30:24.548Z,5.55
2022-10-21T09:32:32.668Z,4.78
2022-10-21T09:34:58.094Z,5.70
2022-10-21T09:37:02.843Z,3.58
2022-10-21T09:39:22.186Z,5.00
2022-10-21T09:41:30.433Z,6.18
2022-10-21T09:43:33.275Z,5.95
2022-10-21T09:45:44.364Z,6.72
2022-10-21T09:47:52.100Z,9.40
2022-10-21T09:50:09.817Z,5.70
2022-10-21T09:52:12.349Z,5.63
2022-10-21T09:54:22.258Z,5.93
2022-10-21T09:56:26.132Z,14.75
2022-10-21T09:58:36.777Z,15.73
2022-10-21T10:00:53.112Z,9.10
2022-10-21T10:03:06.804Z,13.13
2022-10-21T10:05:36.308Z,13.73
2022-10-21T10:07:38.415Z,15.82
2022-10-21T10:09:46.151Z,15.25
2022-10-21T10:12:12.637Z,13.48
2022-10-21T10:14:32.616Z,11.80
2022-10-21T10:16:34.802Z,19.63
2022-10-21T10:18:36.984Z,15.48
2022-10-21T10:20:38.933Z,11.30
2022-10-21T10:22:43.199Z,18.65
2022-10-21T10:24:45.561Z,15.27
2022-10-21T10:26:48.745Z,15.73
2022-10-21T10:29:00.840Z,15.82
2022-10-21T10:35:05.032Z,12.75
2022-10-21T10:37:22.970Z,11.45
2022-10-21T10:39:30.764Z,7.78
2022-10-21T10:41:38.276Z,9.38
2022-10-21T10:43:47.929Z,9.80
2022-10-21T10:46:10.424Z,5.05
2022-10-21T10:48:23.105Z,5.53
2022-10-21T10:50:44.566Z,7.22
2022-10-21T10:52:46.462Z,5.47
2022-10-21T10:54:49.758Z,5.25
2022-10-21T10:57:04.128Z,3.80
2022-10-21T10:59:14.706Z,4.65
2022-10-21T11:01:41.975Z,5.30
2022-10-21T11:03:55.198Z,5.80
2022-10-21T11:06:07.305Z,2.38
2022-10-21T11:08:29.748Z,2.30
2022-10-21T11:11:03.657Z,3.17
2022-10-21T11:13:12.696Z,5.00
2022-10-21T11:15:16.566Z,2.75
2022-10-21T11:17:21.752Z,2.42
2022-10-21T11:19:36.049Z,7.30
2022-10-21T11:21:56.536Z,8.50
2022-10-21T11:24:19.505Z,8.43
2022-10-21T11:26:40.348Z,13.05
2022-10-21T11:29:10.580Z,21.02
2022-10-21T11:32:09.707Z,17.00
2022-10-21T11:34:37.029Z,9.90
2022-10-21T11:36:57.574Z,9.07
2022-10-21T11:39:29.436Z,12.30
2022-10-21T11:42:06.635Z,15.07
2022-10-21T11:44:48.522Z,19.10
2022-10-21T11:47:12.461Z,19.33
2022-10-21T11:49:38.153Z,13.32
2022-10-21T11:51:43.401Z,6.80
2022-10-21T11:54:03.656Z,4.88
2022-10-21T11:56:13.254Z,5.28
2022-10-21T11:58:18.293Z,5.63
2022-10-21T12:00:27.116Z,4.57
2022-10-21T12:03:00.962Z,5.43
2022-10-21T12:05:21.856Z,6.82
2022-10-21T12:07:40.944Z,5.57
2022-10-21T12:10:00.015Z,3.03
2022-10-21T12:12:09.738Z,3.28
2022-10-21T12:14:43.533Z,4.75
2022-10-21T12:16:47.019Z,4.57
2022-10-21T12:18:56.222Z,3.00
2022-10-21T12:20:59.858Z,5.25
2022-10-21T12:23:06.169Z,5.78
2022-10-21T12:25:16.964Z,5.68
2022-10-21T12:28:10.326Z,4.07
2022-10-21T12:30:15.242Z,4.47
2022-10-21T12:32:31.844Z,4.20
2022-10-21T12:34:34.615Z,6.00
2022-10-21T12:37:26.885Z,4.18
2022-10-21T12:39:34.510Z,4.30
2022-10-21T12:41:38.541Z,5.63
2022-10-21T12:43:41.839Z,4.55
2022-10-21T12:45:44.395Z,11.57
2022-10-21T12:47:46.654Z,33.10
2022-10-21T12:50:23.607Z,54.55
2022-10-21T12:52:25.834Z,68.63
2022-10-21T12:54:31.103Z,49.75
2022-10-21T12:56:51.355Z,47.22
2022-10-21T12:59:03.415Z,39.38
2022-10-21T13:01:27.291Z,35.65
2022-10-21T13:03:51.285Z,24.73
2022-10-21T13:05:53.077Z,23.35
2022-10-21T13:08:23.016Z,26.75
2022-10-21T13:10:26.506Z,23.23
2022-10-21T13:12:28.457Z,21.45
2022-10-21T13:14:45.737Z,18.25
2022-10-21T13:16:48.502Z,19.05
2022-10-21T13:18:50.578Z,20.35
2022-10-21T13:20:58.805Z,12.77
2022-10-21T13:23:31.794Z,8.65
2022-10-21T13:25:36.358Z,9.40
2022-10-21T13:27:39.600Z,10.65
2022-10-21T13:29:45.653Z,9.38
2022-10-21T13:31:48.029Z,8.73
2022-10-21T13:33:55.600Z,10.07
2022-10-21T13:36:04.260Z,8.73
2022-10-21T13:38:22.318Z,9.50
2022-10-21T13:40:30.834Z,10.57
2022-10-21T13:42:40.674Z,7.88
2022-10-21T13:44:53.351Z,7.55
2022-10-21T13:46:55.462Z,8.27
2022-10-21T13:49:01.503Z,8.15
2022-10-21T13:51:16.036Z,9.82
2022-10-21T13:53:18.112Z,13.38
2022-10-21T13:55:23.128Z,6.85
2022-10-21T13:57:32.504Z,7.80
2022-10-21T13:59:35.128Z,9.02
2022-10-21T14:01:52.765Z,8.80
2022-10-21T14:04:14.641Z,5.88
2022-10-21T14:06:26.064Z,9.00
2022-10-21T14:08:33.223Z,8.88
2022-10-21T14:10:36.403Z,8.27
2022-10-21T14:12:46.549Z,6.22
2022-10-21T14:14:49.796Z,8.73
2022-10-21T14:16:55.877Z,6.03
2022-10-21T14:19:01.812Z,5.20
2022-10-21T14:21:05.374Z,8.48
2022-10-21T14:23:15.934Z,6.05
2022-10-21T14:25:19.116Z,8.32
2022-10-21T14:27:46.945Z,4.60
2022-10-21T14:29:49.467Z,4.45
2022-10-21T14:31:51.609Z,4.50
2022-10-21T14:33:54.062Z,4.50
2022-10-21T14:36:05.438Z,2.97
2022-10-21T14:38:29.528Z,3.22
2022-10-21T14:40:37.887Z,4.50
2022-10-21T14:42:41.667Z,5.32
2022-10-21T14:44:46.681Z,3.65
2022-10-21T14:46:51.419Z,5.05
2022-10-21T14:49:03.590Z,4.82
2022-10-21T14:51:13.575Z,4.18
2022-10-21T14:53:21.590Z,4.22
2022-10-21T14:55:30.064Z,5.25
2022-10-21T14:57:40.750Z,2.85
2022-10-21T14:59:43.843Z,4.20
2022-10-21T15:01:46.193Z,8.05
2022-10-21T15:03:50.153Z,6.18
2022-10-21T15:06:10.307Z,6.25
2022-10-21T15:08:21.375Z,18.15
2022-10-21T15:10:23.477Z,20.75
2022-10-21T15:12:26.010Z,25.63
2022-10-21T15:14:31.954Z,24.70
2022-10-21T15:18:42.482Z,22.75
2022-10-21T15:21:05.792Z,23.02
2022-10-21T15:23:20.037Z,24.60
2022-10-21T15:25:24.776Z,23.15
2022-10-21T15:27:36.599Z,25.38
2022-10-21T15:29:45.008Z,25.42
2022-10-21T15:31:47.412Z,18.33
2022-10-21T15:33:51.043Z,14.50
2022-10-21T15:36:09.716Z,15.65
2022-10-21T15:38:11.986Z,13.57
2022-10-21T15:40:14.223Z,17.45
2022-10-21T15:42:18.624Z,13.93
2022-10-21T15:44:31.822Z,13.05
2022-10-21T15:46:35.589Z,14.80
2022-10-21T15:48:37.726Z,16.08
2022-10-21T15:50:43.018Z,12.85
2022-10-21T15:52:45.376Z,9.15
2022-10-21T15:54:47.755Z,10.82
2022-10-21T15:56:52.457Z,10.05
2022-10-21T15:58:54.765Z,16.25
2022-10-21T16:00:56.815Z,14.80
2022-10-21T16:02:59.442Z,11.50
2022-10-21T16:05:01.510Z,12.80
2022-10-21T16:07:09.405Z,14.20
2022-10-21T16:09:16.754Z,13.57
2022-10-21T16:11:34.645Z,14.95
2022-10-21T16:14:10.250Z,14.60
2022-10-21T16:16:20.993Z,19.63
2022-10-21T16:18:22.926Z,18.77
2022-10-21T16:20:29.669Z,25.63
2022-10-21T16:22:31.734Z,23.20
2022-10-21T16:24:33.654Z,25.45
2022-10-21T16:26:40.487Z,26.25
2022-10-21T16:28:43.071Z,28.13
2022-10-21T16:30:45.180Z,39.40
2022-10-21T16:32:47.764Z,38.95
2022-10-21T16:34:49.747Z,53.67
2022-10-21T16:36:51.765Z,55.42
2022-10-21T16:38:54.061Z,56.13
2022-10-21T16:40:56.251Z,54.60
2022-10-21T16:42:58.190Z,54.20
2022-10-21T16:45:00.257Z,52.65
2022-10-21T16:47:03.424Z,50.83
2022-10-21T16:49:13.099Z,46.25
2022-10-21T16:51:15.792Z,48.08
2022-10-21T16:53:17.955Z,47.22
2022-10-21T16:55:20.288Z,48.95
2022-10-21T16:57:22.278Z,40.15
2022-10-21T16:59:24.218Z,35.97
2022-10-21T17:01:26.523Z,32.40
2022-10-21T17:03:28.442Z,27.75
2022-10-21T17:05:30.766Z,25.38
2022-10-21T17:07:34.124Z,27.42
2022-10-21T17:09:36.320Z,26.23
2022-10-21T17:11:40.043Z,23.40
2022-10-21T17:13:43.323Z,24.88
2022-10-21T17:15:45.747Z,28.17
2022-10-21T17:17:47.768Z,23.98
2022-10-21T17:19:50.295Z,26.17
2022-10-21T17:25:45.577Z,44.10
2022-10-21T17:27:47.491Z,49.17
2022-10-21T17:29:49.387Z,55.10
2022-10-21T17:31:51.813Z,55.25
2022-10-21T17:33:57.037Z,54.65
2022-10-21T17:35:59.022Z,59.85
2022-10-21T17:38:01.723Z,57.33
2022-10-21T17:40:03.778Z,59.50
2022-10-21T17:42:06.024Z,62.65
2022-10-21T17:44:12.405Z,61.10
2022-10-21T17:46:18.218Z,60.33
2022-10-21T17:48:20.101Z,60.35
2022-10-21T17:50:26.152Z,56.90
2022-10-21T17:52:28.042Z,56.75
2022-10-21T17:54:31.721Z,59.17
2022-10-21T17:56:36.468Z,55.00
2022-10-21T17:58:38.449Z,56.20
2022-10-21T18:00:43.767Z,50.55
2022-10-21T18:02:46.785Z,52.05
2022-10-21T18:04:48.633Z,51.08
2022-10-21T18:06:50.679Z,51.45
2022-10-21T18:08:53.134Z,49.78
2022-10-21T18:10:57.738Z,51.03
2022-10-21T18:12:59.780Z,53.92
2022-10-21T18:15:02.320Z,56.60
2022-10-21T18:17:04.860Z,52.25
2022-10-21T18:19:06.997Z,49.92
2022-10-21T18:21:12.492Z,51.20
2022-10-21T18:23:14.994Z,53.13
2022-10-21T18:25:17.137Z,52.80
2022-10-21T18:27:19.169Z,61.42
2022-10-21T18:29:22.271Z,52.25
2022-10-21T18:31:26.402Z,56.22
2022-10-21T18:33:28.656Z,60.97
2022-10-21T18:35:30.563Z,59.53
2022-10-21T18:37:34.182Z,60.40
2022-10-21T18:39:36.460Z,59.22
2022-10-21T18:41:38.753Z,61.47
2022-10-21T18:43:40.688Z,61.88
2022-10-21T18:45:46.151Z,62.78
2022-10-21T18:47:49.902Z,62.97
2022-10-21T18:49:51.787Z,56.28
2022-10-21T18:51:53.674Z,60.95
2022-10-21T18:53:55.921Z,61.63
2022-10-21T18:55:57.680Z,63.22
2022-10-21T18:57:59.607Z,65.18
2022-10-21T19:00:01.613Z,72.22
2022-10-21T19:02:04.176Z,67.05
2022-10-21T19:04:06.779Z,66.05
2022-10-21T19:06:32.010Z,68.10
2022-10-21T19:08:33.897Z,65.72
2022-10-21T19:10:35.738Z,66.40
2022-10-21T19:12:37.640Z,72.93
2022-10-21T19:14:39.376Z,76.93
2022-10-21T19:16:42.268Z,82.32
2022-10-21T19:18:44.038Z,66.28
2022-10-21T19:20:46.039Z,63.60
2022-10-21T19:22:47.955Z,68.45
2022-10-21T19:24:49.794Z,57.80
2022-10-21T19:26:56.598Z,53.80
2022-10-21T19:29:09.681Z,54.03
2022-10-21T19:31:11.976Z,54.72
2022-10-21T19:33:13.809Z,53.72
2022-10-21T19:35:15.681Z,53.15
2022-10-21T19:37:17.573Z,55.30
2022-10-21T19:39:20.081Z,52.35
2022-10-21T19:41:23.157Z,57.17
2022-10-21T19:43:26.021Z,59.10
2022-10-21T19:45:28.131Z,63.90
2022-10-21T19:47:31.366Z,60.45
2022-10-21T19:49:34.024Z,62.88
2022-10-21T19:51:37.254Z,70.40
2022-10-21T19:53:40.122Z,71.85
2022-10-21T19:55:42.069Z,60.35
2022-10-21T19:57:43.927Z,67.85
2022-10-21T19:59:45.808Z,58.75
2022-10-21T20:01:47.843Z,51.63
2022-10-21T20:04:32.560Z,48.85
2022-10-21T20:06:37.985Z,44.13
2022-10-21T20:08:40.211Z,40.13
2022-10-21T20:10:42.105Z,46.92
2022-10-21T20:12:43.939Z,54.85
2022-10-21T20:14:45.801Z,52.17
2022-10-21T20:16:49.093Z,49.38
2022-10-21T20:18:51.294Z,55.72
2022-10-21T20:20:54.467Z,46.53
2022-10-21T20:22:56.550Z,50.30
2022-10-21T20:24:58.416Z,50.30
2022-10-21T20:27:02.281Z,51.78
2022-10-21T20:29:04.385Z,57.67
2022-10-21T20:31:10.407Z,54.10
2022-10-21T20:33:12.682Z,44.22
2022-10-21T20:35:14.628Z,41.60
2022-10-21T20:37:16.754Z,44.03
2022-10-21T20:39:18.711Z,40.55
2022-10-21T20:41:23.671Z,41.55
2022-10-21T20:43:28.485Z,49.20
2022-10-21T20:45:30.514Z,42.53
2022-10-21T20:47:32.349Z,41.13
2022-10-21T20:49:34.307Z,40.17
2022-10-21T20:51:38.119Z,41.13
2022-10-21T20:53:53.526Z,38.08
2022-10-21T20:55:56.309Z,43.85
2022-10-21T20:57:58.364Z,39.90
2022-10-21T21:00:00.495Z,55.13
2022-10-21T21:02:02.334Z,58.45
2022-10-21T21:04:08.481Z,54.35
2022-10-21T21:06:12.329Z,49.35
2022-10-21T21:08:14.192Z,47.25
2022-10-21T21:10:16.252Z,52.35
2022-10-21T21:12:18.403Z,40.60
2022-10-21T21:14:20.417Z,35.08
2022-10-21T21:16:25.391Z,31.60
2022-10-21T21:18:27.622Z,32.45
2022-10-21T21:20:29.729Z,31.45
2022-10-21T21:22:31.643Z,35.45
2022-10-21T21:24:33.655Z,32.30
2022-10-21T21:26:37.948Z,33.08
2022-10-21T21:29:42.257Z,35.72
2022-10-21T21:31:44.497Z,28.52
2022-10-21T21:33:46.345Z,27.65
2022-10-21T21:35:48.626Z,22.75
2022-10-21T21:37:50.739Z,22.63
2022-10-21T21:39:52.732Z,25.95
2022-10-21T21:41:54.571Z,22.67
2022-10-21T21:44:22.106Z,20.85
2022-10-21T21:46:25.248Z,21.80
2022-10-21T21:48:27.946Z,22.20
2022-10-21T21:50:29.877Z,22.42
2022-10-21T21:52:32.383Z,24.75
2022-10-21T21:54:34.220Z,21.55
2022-10-21T21:56:36.532Z,22.23
2022-10-21T21:58:39.595Z,20.27
2022-10-21T22:00:41.618Z,20.65
2022-10-21T22:02:44.162Z,20.58
2022-10-21T22:04:46.285Z,23.48
2022-10-21T22:06:48.392Z,20.15
2022-10-21T22:08:51.428Z,21.17
2022-10-21T22:10:53.536Z,17.40
2022-10-21T22:12:56.750Z,18.70
2022-10-21T22:14:58.849Z,16.13
2022-10-21T22:17:00.968Z,14.57
2022-10-21T22:19:02.940Z,18.38
2022-10-21T22:21:08.373Z,16.83
2022-10-21T22:23:10.234Z,14.65
2022-10-21T22:25:14.569Z,14.63
2022-10-21T22:27:16.561Z,14.77
2022-10-21T22:29:18.771Z,18.42
2022-10-21T22:31:28.947Z,16.15
2022-10-21T22:33:33.259Z,16.40
2022-10-21T22:35:38.828Z,16.52
2022-10-21T22:37:41.071Z,15.75
2022-10-21T22:39:43.376Z,16.15
2022-10-21T22:41:45.292Z,14.75
2022-10-21T22:43:47.375Z,17.13
2022-10-21T22:45:49.255Z,18.17
2022-10-21T22:47:51.085Z,17.13
2022-10-21T22:49:53.144Z,16.05
2022-10-21T22:51:55.142Z,14.00
2022-10-21T22:53:57.129Z,17.77
2022-10-21T22:55:59.416Z,22.08
2022-10-21T22:58:01.522Z,23.52
2022-10-21T23:00:04.380Z,27.65
2022-10-21T23:02:06.551Z,25.48
2022-10-21T23:04:10.051Z,24.83
2022-10-21T23:06:11.903Z,28.05
2022-10-21T23:08:18.283Z,25.17
2022-10-21T23:10:20.232Z,22.58
2022-10-21T23:12:22.114Z,16.38
2022-10-21T23:14:24.126Z,22.88
2022-10-21T23:16:26.091Z,26.92
2022-10-21T23:18:28.425Z,25.90
2022-10-21T23:20:30.452Z,24.48
2022-10-21T23:22:32.436Z,27.08
2022-10-21T23:24:34.276Z,29.90
2022-10-21T23:26:51.266Z,39.10
2022-10-21T23:28:53.277Z,66.40
2022-10-21T23:30:55.456Z,71.15
2022-10-21T23:32:57.377Z,55.58
2022-10-21T23:34:59.412Z,52.25
2022-10-21T23:37:01.333Z,47.92
2022-10-21T23:39:04.001Z,38.75
2022-10-21T23:41:05.886Z,44.00
2022-10-21T23:43:08.039Z,41.38
2022-10-21T23:45:11.538Z,39.35
2022-10-21T23:47:13.520Z,36.95
2022-10-21T23:49:15.547Z,31.60
2022-10-21T23:51:17.650Z,27.40
2022-10-21T23:53:19.645Z,27.17
2022-10-21T23:55:21.712Z,25.80
2022-10-21T23:57:23.911Z,24.95
2022-10-21T23:59:25.766Z,25.83
